LiveATC.Net - Listen to live air traffic control over the Internet!


ICAO: KHWD  IATA: HWD   Airport: Hayward Executive Airport
City: Hayward   State/Province: California
Country: United States   Continent: North America
KHWD METAR Weather: KHWD 190954Z AUTO 13006KT 10SM CLR 11/08 A3008 RMK AO2 SLP195 T01060078
KHWD Flight Activity (FlightAware)
KHWD Airport Info   (iFlightPlanner)
KHWD VFR Sectional Chart   (iFlightPlanner) 
KHWD IFR Low Chart   (iFlightPlanner) 

KHWD Ground/Tower
Feed Status: UP   Listeners: 0
Listen in your browser - HTML5 player (in browser, HTML5)
Click here to listen with your own player (launches your MP3 player)
KHWD Ground/Tower Audio Archives
FacilityFrequency
Hayward Ground121.400
Hayward Tower118.900
Hayward Tower120.200

NOTICE

Unauthorized use prohibited. See LiveATC.net Terms of Service


Airport/ARTCC Code
Frequency Search
(e.g., 124.400, 128.75)
Site-wide search
 


Browse LiveATC Feeds
Top 50 LiveATC Feeds
LiveATC Feed Map
Bad Weather Areas

LiveATC FAQ
Offer LiveATC feed
Contact LiveATC.net
Press Inquiries

LiveATC on iPhone
LiveATC on Android

Windows Phone
Windows 8/10

LiveATC Mobile
(Mobile browser)

ATC Audio Archives
Interesting Recordings

LiveATC Forums


Home Page
About LiveATC.net
Make a Donation
Terms of Use
Privacy Policy

Canadian Air Freqs

AIRMETs/SIGMETs

FAA Airport Status
Nat'l Airspace Status
Arrival Demand Charts


Server Software By:
Icecast.org
Liquidsoap